Historique des mesures à Cassis (13260), France
Quotidien Résumé Fevrier 26, 2018 Unités:  US    Métrique   Métrique/US
« Précédent (Jour)
Suivant (Jour) »
Quotidien Hebdomadaire Mensuel Annuel Période au choix
  Maximum: Minimum: Moyenne:
Température: 32 °F 33.8 °F 39.6 °F
Point de rosée: 32 °F 18.3 °F 27.3 °F
Humidité: Humidity % 43 % 59 %
Vitesse du vent: WindSpeedKMH mph 0.0 mph 5.4 mph
Rafales: WindSpeedGustKMH mph - -
Vent:- - West
Pression: 0 in 29.6 in -
Précipitations: 25.4 in    
Historical Graphs
 
 
Mesures pour : Fevrier 26, 2018
Heure Temperature Point de rosée Pression Vent Vitesse du vent Rafales Humidité Pluie (par heure) Conditions
32 °F 32 °F 0 in Calm     Humidity % 0 in SoftwareType W/m2
00:12 40.3 °F 32.4 °F 29.7 in WNW 22.7 mph 29.4 mph 73 % 0 in open2300-1.11 W/m2
01:12 37.9 °F 30.7 °F 29.7 in NNW 18.0 mph 18.3 mph 75 % 12.7 in open2300-1.11 W/m2
02:12 37.9 °F 30.9 °F 29.7 in NW 4.7 mph 7.9 mph 76 % 0 in open2300-1.11 W/m2
03:12 37.6 °F 30.4 °F 29.7 in Calm   3.5 mph 75 % 12.7 in open2300-1.11 W/m2
04:12 38.5 °F 31.8 °F 29.7 in Calm     77 % 0 in open2300-1.11 W/m2
05:12 37.6 °F 29.5 °F 29.7 in NW 5.0 mph 7.6 mph 72 % 0 in open2300-1.11 W/m2
06:12 36.7 °F 28.2 °F 29.7 in NW 8.7 mph 8.7 mph 71 % 0 in open2300-1.11 W/m2
07:12 34.9 °F 25.7 °F 29.6 in NNW 1.4 mph 7.9 mph 69 % 0 in open2300-1.11 W/m2
08:12 33.8 °F 24.3 °F 29.6 in NNE 4.0 mph 14.3 mph 68 % 0 in open2300-1.11 W/m2
09:12 36.7 °F 26.8 °F 29.6 in West 9.7 mph 9.7 mph 67 % 0 in open2300-1.11 W/m2
11:12 44.4 °F 32.2 °F 29.6 in Calm   4.7 mph 62 % 0 in open2300-1.11 W/m2
12:12 46.8 °F 34 °F 29.6 in Calm   2.6 mph 61 % 0 in open2300-1.11 W/m2
13:12 47.3 °F 34.9 °F 29.6 in SE 9.0 mph 9.0 mph 62 % 0 in open2300-1.11 W/m2
14:12 47.3 °F 34.9 °F 29.6 in Calm     62 % 0 in open2300-1.11 W/m2
15:12 45.3 °F 27.9 °F 29.6 in NW 12.6 mph 19.1 mph 50 % 0 in open2300-1.11 W/m2
16:12 42.6 °F 21.6 °F 29.6 in WNW 10.5 mph 18.0 mph 43 % 0 in open2300-1.11 W/m2
17:12 40.1 °F 19.2 °F 29.6 in WNW 10.1 mph 14.3 mph 43 % 0 in open2300-1.11 W/m2
18:12 38.5 °F 18.3 °F 29.6 in NNW 2.6 mph 8.7 mph 44 % 0 in open2300-1.11 W/m2
19:12 38.5 °F 18.3 °F 29.6 in North 4.0 mph 4.3 mph 44 % 0 in open2300-1.11 W/m2
20:12 38.8 °F 19.8 °F 29.6 in Calm     46 % 0 in open2300-1.11 W/m2
21:12 39 °F 25.3 °F 29.6 in NW 2.1 mph 2.1 mph 58 % 0 in open2300-1.11 W/m2
23:12 37.4 °F 21.4 °F 29.6 in Calm     52 % 0 in open2300-1.11 W/m2
Observations météo à CASSIS
WU-History script by Weather Underground - 1 mb